Utica, IL (61373)

7:55 PM CST on February 10, 2016 (GMT -0600)
Oak Bluff Estates | | Change Station
CLOSE
Current Station
Personal Weather Station
Location: North Utica, IL
Elevation: 607 ft
Nearby Weather Stations

Elev 607 ft 41.35 °N, 89.03 °W | Updated 11 minutes ago

Clear
Clear
14.4 °F
Feels Like 14 °F
N
3.0
Wind Variable Wind from NNW
Gusts 4.0 mph

Today
High -- | Low -- °F
--% Chance of Precip.
Yesterday
High -- | Low -- °F
Precip. -- in
Pressure 30.14 in
Visibility 10.0 miles
Clouds Clear
Windchill 14 °F
Dew Point 7 °F
Humidity 71%
Rainfall 0.00 in
Snow Depth Not available.
6:57 AM 5:23 PM
Waxing Crescent, 8% visible
METAR KVYS 110135Z AUTO 30005KT 10SM CLR M09/M14 A3014 RMK AO2 T10901138
Pressure 30.14 in
Visibility 10.0 miles
Clouds Clear
Windchill 14 °F
Dew Point 7 °F
Humidity 71%
Rainfall 0.00 in
Snow Depth Not available.
6:57 AM 5:23 PM
Waxing Crescent, 8% visible
METAR KVYS 110135Z AUTO 30005KT 10SM CLR M09/M14 A3014 RMK AO2 T10901138

10-Day Weather Forecast

Almanac

Astronomy

Feb. 10, 2016 Rise Set
Actual Time
Civil Twilight
Nautical Twilight
Astronomical Twilight
Moon
Length of Visible Light
Length of Day
Tomorrow will be .
, % of the Moon is Illuminated

Today's Extremes

State Highs State Lows

Community

WunderPhotos

Upload Photos

1,891,970 photos uploaded!

WunderBlog® & News

Nearby

Air Quality

  Air Quality AQ Index Pollutant
Not available.

Snow Depth

Station Depth Elevation

Earthquake Activity

City Distance Mag. Time & Date
Minimum magnitude displayed is 2.5.

Coastal Water Temperatures

Place Temperature

Stations

Nearby Weather Stations

Station Location Temp. Windchill Dew Point Humidity Wind Precip. Elev Updated Type
                   

Watches & Warnings

There are currently no watches in effect.